Aérodrome :
LOGIN :

S'inscrire | Disclaimer

   EN    FR    IT 

 










Légende :    VFR   VFR Marginal   IFR   IFR Intensif   IFR Très Intensif
Visi : 
Plafond : 
>= 8 km
>= 3000ft
5 à 8 km
1000 à 3000 ft
1500m à 5 km
500 à 1000 ft
800 à 1500m
200 à 500 ft
< 800m
< 200 ft
Symboles :   Orages  Brouillard  Fortes neiges  Fortes précipitations  Vent > 20 kt
SIGMETs :   Divers  Orages  Givrage  Turbulence  Onde Orograph.  Cendres Volcan.






- Altitude de l'aérodrome : 36 ft
- Code IATA : LTQ


LFAT - Le Touquet

DERNIER METAR :
  • 201100Z AUTO 21016G30KT 180V260 CAVOK 11/06 Q1013 TEMPO 4000 -RA BKN012 OVC020

METARs EXPIRÉS :
  • 201030Z AUTO 21016KT 170V240 CAVOK 10/06 Q1013 TEMPO 4000 -RA BKN012 OVC020 BECMG 21020G35KT
  • 201000Z AUTO 21015KT 180V250 9999 OVC048 10/06 Q1014 TEMPO 4000 -RA BKN012 OVC020 BECMG 21020G35KT
  • 200930Z AUTO 21013KT 170V250 9999 OVC047 10/07 Q1014 TEMPO 4000 -RA BKN012 OVC020 BECMG 21020G35KT
  • 200900Z AUTO 21013G24KT 180V240 9999 OVC046 09/07 Q1014 TEMPO 4000 -RA BKN012 OVC020 BECMG 21020G35KT
  • 200830Z AUTO 21013KT 190V250 9999 FEW017 SCT025 OVC042 09/07 Q1014 TEMPO 4000 RA BKN012 OVC020 BECMG 22015G25KT

TAF TAF LFAT
Valide du 20 à 09h jusqu'au 20 à 18h UTC


200800Z 2009/2018 22015G25KT 9999 SCT015 BKN035
BECMG 2009/2011 21020G35KT
PROB40
TEMPO 2009/2015 4000 -RA BKN012 OVC020
TEMPO 2015/2017 30030G47KT 2000 RA BKN008 BKN020TCU
FM201700 30020G35KT 9999 SCT020
TEMPO 2017/2018 30020G45KT 3000 SHRA BKN015CB
ATIS : +33 3 21 06 62 84



MET'MAP, la Météo Aéronautique d'un coup d'oeil ! - Copyright ORBIFLY Décembre 2007 - Disclaimer

ORBIFLY MET'MAP TEAM :

Programmation & Développement : Alexandra Zaïnal
Sur une idée originale de : Baudouin d'Aumeries
Assistance à la programmation : Marc-Olivier Méhu
Soutien technique & logistique : Manuel Goepfert

Contact : metmap@orbifly.com




SOURCES & CREDITS :

   NOAA